Madison, New Hampshire
Current Conditions -  °F | °C
As of 3:17 AM on Monday 24 Nov 2014 (Local Time) from KIZG Reporting Station
Haze Haze  
Wind Chill: 30°   Ceiling: Unl
Heat Index: 30°   Visibility: 6mi
Dew Point: 28°   Wind: 0mph
Humidity: 92%   Direction: NA
Pressure: 30.03"   Gusts: NA
Location:  43.9°N, 71.15°W
Report Text: KIZG 240817Z AUTO 00000KT 6SM BR SCT002 M01/M02 A3003 RMK AO2 T10111022
Loading
Personal Weather Stations






























Interactive Weather Map New forecast layout! Learn more

10-Day Weather Forecast

Advertisements
Track Severe Weather on mobile